createdAt,value
2023-01-15T00:03:20.760Z,0.63
2023-01-15T00:06:45.699Z,0.90
2023-01-15T00:10:13.283Z,0.90
2023-01-15T00:13:38.158Z,0.85
2023-01-15T00:17:03.292Z,0.73
2023-01-15T00:20:28.244Z,0.60
2023-01-15T00:24:11.856Z,1.08
2023-01-15T00:27:05.063Z,1.50
2023-01-15T00:30:30.521Z,0.98
2023-01-15T00:33:56.507Z,0.98
2023-01-15T00:37:21.600Z,0.90
2023-01-15T00:40:52.781Z,0.70
2023-01-15T00:44:13.232Z,0.70
2023-01-15T00:47:41.812Z,1.05
2023-01-15T00:51:08.527Z,0.55
2023-01-15T00:54:33.398Z,1.00
2023-01-15T00:57:58.319Z,1.08
2023-01-15T01:01:23.258Z,0.60
2023-01-15T01:04:48.416Z,0.35
2023-01-15T01:08:14.009Z,0.80
2023-01-15T01:11:38.968Z,0.77
2023-01-15T01:15:04.028Z,0.65
2023-01-15T01:18:28.932Z,0.60
2023-01-15T01:21:54.218Z,0.50
2023-01-15T01:25:20.424Z,0.73
2023-01-15T01:28:49.289Z,0.60
2023-01-15T01:32:14.236Z,1.20
2023-01-15T01:35:39.160Z,0.50
2023-01-15T01:39:04.659Z,0.40
2023-01-15T01:42:29.777Z,0.38
2023-01-15T01:45:59.828Z,0.68
2023-01-15T01:49:29.748Z,0.88
2023-01-15T01:52:58.635Z,0.70
2023-01-15T01:56:24.483Z,0.55
2023-01-15T01:59:51.215Z,0.70
2023-01-15T02:03:19.983Z,0.40
2023-01-15T02:06:47.443Z,0.57
2023-01-15T02:10:15.791Z,0.88
2023-01-15T02:13:46.507Z,0.55
2023-01-15T02:17:30.025Z,0.13
2023-01-15T02:21:04.995Z,0.50
2023-01-15T02:24:51.263Z,0.00
2023-01-15T02:28:20.223Z,0.20
2023-01-15T02:31:50.192Z,0.38
2023-01-15T02:35:38.649Z,0.20
2023-01-15T02:39:06.405Z,0.10
2023-01-15T02:42:36.642Z,0.05
2023-01-15T02:46:02.678Z,0.00
2023-01-15T02:49:28.658Z,0.00
2023-01-15T02:52:59.585Z,0.08
2023-01-15T02:56:28.619Z,0.00
2023-01-15T02:59:55.468Z,0.10
2023-01-15T03:03:23.290Z,0.00
2023-01-15T03:06:57.127Z,0.30
2023-01-15T03:10:23.180Z,0.40
2023-01-15T03:13:49.188Z,0.70
2023-01-15T03:17:24.169Z,0.00
2023-01-15T03:20:51.850Z,0.20
2023-01-15T03:24:25.855Z,0.20
2023-01-15T03:27:52.521Z,0.20
2023-01-15T03:31:18.810Z,0.10
2023-01-15T03:34:44.897Z,0.20
2023-01-15T03:38:10.364Z,0.08
2023-01-15T03:41:54.907Z,0.50
2023-01-15T03:45:32.431Z,0.20
2023-01-15T03:49:01.328Z,0.45
2023-01-15T03:53:03.053Z,0.25
2023-01-15T03:56:44.879Z,0.10
2023-01-15T04:00:28.324Z,0.47
2023-01-15T04:03:54.624Z,0.10
2023-01-15T04:07:20.239Z,0.20
2023-01-15T04:14:20.190Z,0.38
2023-01-15T04:17:45.156Z,0.00
2023-01-15T04:21:10.526Z,0.38
2023-01-15T04:24:35.421Z,0.03
2023-01-15T04:28:00.275Z,0.52
2023-01-15T04:31:25.245Z,0.10
2023-01-15T04:34:50.200Z,0.08
2023-01-15T04:38:15.241Z,0.13
2023-01-15T04:41:58.939Z,0.10
2023-01-15T04:45:23.853Z,0.10
2023-01-15T04:48:48.765Z,0.20
2023-01-15T04:52:14.367Z,0.40
2023-01-15T04:55:39.188Z,0.08
2023-01-15T04:59:04.064Z,0.32
2023-01-15T05:02:29.096Z,0.28
2023-01-15T05:05:54.023Z,0.10
2023-01-15T05:09:18.952Z,0.55
2023-01-15T05:12:43.844Z,0.10
2023-01-15T05:16:12.939Z,0.30
2023-01-15T05:19:37.920Z,0.35
2023-01-15T05:23:02.752Z,0.13
2023-01-15T05:26:28.067Z,0.30
2023-01-15T05:29:53.647Z,0.20
2023-01-15T05:33:18.498Z,0.32
2023-01-15T05:36:43.378Z,0.30
2023-01-15T05:40:08.676Z,0.10
2023-01-15T05:43:33.517Z,0.40
2023-01-15T05:47:02.799Z,0.20
2023-01-15T05:50:29.070Z,0.30
2023-01-15T05:53:54.049Z,0.00
2023-01-15T05:57:18.999Z,0.30
2023-01-15T06:00:43.925Z,0.00
2023-01-15T06:04:10.046Z,0.15
2023-01-15T06:07:34.942Z,0.32
2023-01-15T06:10:59.818Z,0.70
2023-01-15T06:14:24.816Z,0.68
2023-01-15T06:17:50.064Z,0.40
2023-01-15T06:21:15.416Z,0.25
2023-01-15T06:24:40.895Z,0.47
2023-01-15T06:28:06.375Z,0.43
2023-01-15T06:31:32.419Z,0.40
2023-01-15T06:34:57.314Z,0.10
2023-01-15T06:38:22.203Z,0.80
2023-01-15T06:42:06.709Z,0.73
2023-01-15T06:46:05.582Z,0.22
2023-01-15T06:49:32.043Z,0.20
2023-01-15T06:52:57.420Z,0.38
2023-01-15T06:56:22.331Z,0.15
2023-01-15T06:59:47.636Z,0.45
2023-01-15T07:03:14.396Z,0.52
2023-01-15T07:06:39.403Z,0.50
2023-01-15T07:10:04.482Z,0.52
2023-01-15T07:13:29.360Z,0.43
2023-01-15T07:16:56.347Z,0.20
2023-01-15T07:20:21.897Z,0.63
2023-01-15T07:23:50.600Z,0.60
2023-01-15T07:27:15.438Z,2.05
2023-01-15T07:30:40.380Z,1.40
2023-01-15T07:34:05.222Z,2.30
2023-01-15T07:37:30.129Z,1.27
2023-01-15T07:41:16.895Z,0.50
2023-01-15T07:45:01.072Z,0.75
2023-01-15T07:48:45.269Z,0.20
2023-01-15T07:52:10.451Z,1.30
2023-01-15T07:55:35.532Z,0.57
2023-01-15T07:59:01.576Z,0.50
2023-01-15T08:02:27.179Z,1.05
2023-01-15T08:05:52.112Z,1.00
2023-01-15T08:09:17.200Z,0.57
2023-01-15T08:13:00.764Z,0.98
2023-01-15T08:16:27.737Z,0.60
2023-01-15T08:19:52.582Z,0.60
2023-01-15T08:23:17.550Z,0.70
2023-01-15T08:26:42.395Z,0.60
2023-01-15T08:30:08.423Z,0.45
2023-01-15T08:33:33.518Z,0.52
2023-01-15T08:37:00.139Z,0.10
2023-01-15T08:40:25.732Z,0.22
2023-01-15T08:43:50.715Z,0.20
2023-01-15T08:47:16.271Z,0.47
2023-01-15T08:50:41.155Z,0.35
2023-01-15T08:54:06.157Z,0.13
2023-01-15T08:57:31.024Z,0.35
2023-01-15T09:00:56.174Z,0.85
2023-01-15T09:04:21.454Z,0.50
2023-01-15T09:07:47.379Z,0.45
2023-01-15T09:11:13.234Z,0.40
2023-01-15T09:14:58.026Z,0.45
2023-01-15T09:18:23.915Z,0.22
2023-01-15T09:21:48.893Z,0.35
2023-01-15T09:25:13.763Z,0.25
2023-01-15T09:28:38.645Z,0.55
2023-01-15T09:32:03.592Z,0.45
2023-01-15T09:35:28.476Z,1.17
2023-01-15T09:38:53.583Z,0.75
2023-01-15T09:42:22.651Z,0.40
2023-01-15T09:46:09.324Z,0.45
2023-01-15T09:50:14.207Z,0.70
2023-01-15T09:54:08.080Z,0.38
2023-01-15T09:57:35.536Z,0.20
2023-01-15T10:01:01.873Z,0.80
2023-01-15T10:04:48.156Z,0.70
2023-01-15T10:08:14.831Z,0.40
2023-01-15T10:12:18.627Z,0.38
2023-01-15T10:15:53.442Z,0.40
2023-01-15T10:19:20.403Z,0.28
2023-01-15T10:23:09.602Z,0.60
2023-01-15T10:26:51.545Z,0.10
2023-01-15T10:30:32.623Z,0.22
2023-01-15T10:34:33.736Z,0.90
2023-01-15T10:38:18.183Z,0.28
2023-01-15T10:42:12.524Z,0.30
2023-01-15T10:45:45.683Z,0.32
2023-01-15T10:49:29.427Z,0.65
2023-01-15T10:53:04.282Z,0.10
2023-01-15T10:56:37.751Z,0.40
2023-01-15T11:00:10.829Z,0.10
2023-01-15T11:03:37.572Z,0.30
2023-01-15T11:07:05.116Z,0.95
2023-01-15T11:10:30.218Z,0.60
2023-01-15T11:14:27.508Z,0.22
2023-01-15T11:18:10.753Z,0.57
2023-01-15T11:21:42.433Z,0.38
2023-01-15T11:25:14.460Z,0.35
2023-01-15T11:32:17.351Z,0.38
2023-01-15T11:36:00.650Z,0.40
2023-01-15T11:39:28.331Z,0.40
2023-01-15T11:43:15.972Z,0.28
2023-01-15T11:47:09.008Z,0.32
2023-01-15T11:50:44.200Z,0.13
2023-01-15T11:54:14.837Z,1.08
2023-01-15T11:57:44.111Z,0.50
2023-01-15T12:01:22.293Z,0.30
2023-01-15T12:04:58.321Z,0.70
2023-01-15T12:08:28.064Z,0.47
2023-01-15T12:12:08.410Z,0.30
2023-01-15T12:15:45.446Z,0.52
2023-01-15T12:19:31.934Z,0.47
2023-01-15T12:23:22.958Z,0.30
2023-01-15T12:27:25.293Z,0.80
2023-01-15T12:31:05.031Z,0.60
2023-01-15T12:35:03.026Z,1.25
2023-01-15T12:38:48.957Z,0.57
2023-01-15T12:42:36.135Z,0.20
2023-01-15T12:46:04.889Z,0.98
2023-01-15T12:49:34.726Z,0.50
2023-01-15T12:53:06.442Z,0.40
2023-01-15T12:56:54.984Z,0.40
2023-01-15T13:00:28.511Z,0.43
2023-01-15T13:03:58.418Z,0.45
2023-01-15T13:07:24.383Z,0.47
2023-01-15T13:11:01.299Z,0.50
2023-01-15T13:14:31.665Z,0.40
2023-01-15T13:18:26.508Z,0.30
2023-01-15T13:21:52.859Z,1.13
2023-01-15T13:25:31.545Z,0.63
2023-01-15T13:29:18.342Z,0.75
2023-01-15T13:33:12.750Z,0.55
2023-01-15T13:36:45.450Z,0.73
2023-01-15T13:40:22.075Z,0.55
2023-01-15T13:43:47.697Z,1.20
2023-01-15T13:47:25.507Z,0.40
2023-01-15T13:50:57.271Z,1.00
2023-01-15T13:54:22.219Z,0.82
2023-01-15T13:57:48.853Z,0.63
2023-01-15T14:01:31.646Z,0.63
2023-01-15T14:05:12.936Z,1.05
2023-01-15T14:08:41.904Z,0.55
2023-01-15T14:12:32.121Z,0.60
2023-01-15T14:16:15.964Z,0.52
2023-01-15T14:19:52.959Z,0.82
2023-01-15T14:23:42.428Z,0.55
2023-01-15T14:27:22.305Z,1.08
2023-01-15T14:31:08.432Z,0.85
2023-01-15T14:34:45.097Z,0.93
2023-01-15T14:38:17.872Z,0.85
2023-01-15T14:42:15.645Z,0.98
2023-01-15T14:45:42.484Z,1.48
2023-01-15T14:49:31.779Z,2.30
2023-01-15T14:53:01.712Z,0.75
2023-01-15T14:56:29.055Z,1.23
2023-01-15T15:00:00.646Z,0.90
2023-01-15T15:03:34.251Z,1.67
2023-01-15T15:07:03.169Z,0.85
2023-01-15T15:10:32.852Z,1.25
2023-01-15T15:14:11.661Z,2.05
2023-01-15T15:17:53.750Z,1.10
2023-01-15T15:21:22.611Z,1.13
2023-01-15T15:24:58.440Z,1.30
2023-01-15T15:28:23.613Z,1.00
2023-01-15T15:31:58.078Z,0.60
2023-01-15T15:35:26.695Z,1.50
2023-01-15T15:38:52.517Z,1.40
2023-01-15T15:42:39.555Z,0.88
2023-01-15T15:46:50.975Z,1.02
2023-01-15T15:50:20.678Z,0.98
2023-01-15T15:53:47.164Z,1.20
2023-01-15T15:57:16.254Z,1.23
2023-01-15T16:00:46.509Z,0.73
2023-01-15T16:04:37.802Z,0.45
2023-01-15T16:08:19.720Z,0.57
2023-01-15T16:11:46.357Z,0.90
2023-01-15T16:15:15.639Z,0.45
2023-01-15T16:18:44.228Z,1.00
2023-01-15T16:22:11.589Z,0.40
2023-01-15T16:25:37.929Z,0.50
2023-01-15T16:29:04.605Z,0.70
2023-01-15T16:32:36.873Z,0.55
2023-01-15T16:36:07.791Z,0.88
2023-01-15T16:39:43.233Z,0.32
2023-01-15T16:43:34.575Z,1.13
2023-01-15T16:47:20.778Z,0.43
2023-01-15T16:50:45.868Z,1.20
2023-01-15T16:54:49.119Z,0.68
2023-01-15T16:58:33.939Z,0.88
2023-01-15T17:05:43.698Z,1.17
2023-01-15T17:09:14.514Z,1.00
2023-01-15T17:12:39.546Z,0.80
2023-01-15T17:16:25.067Z,1.45
2023-01-15T17:19:50.771Z,0.63
2023-01-15T17:40:20.296Z,0.47
2023-01-15T17:43:45.599Z,0.88
2023-01-15T17:47:12.303Z,0.80
2023-01-15T17:50:43.128Z,0.70
2023-01-15T17:54:10.885Z,0.13
2023-01-15T17:57:57.496Z,0.88
2023-01-15T18:01:43.231Z,0.75
2023-01-15T18:05:29.557Z,0.60
2023-01-15T18:08:56.500Z,0.38
2023-01-15T18:12:21.818Z,1.30
2023-01-15T18:15:46.713Z,0.82
2023-01-15T18:19:11.667Z,0.77
2023-01-15T18:22:39.867Z,1.25
2023-01-15T18:26:05.947Z,1.45
2023-01-15T18:29:39.855Z,1.60
2023-01-15T18:33:07.847Z,1.38
2023-01-15T18:36:32.782Z,1.77
2023-01-15T18:39:57.592Z,0.60
2023-01-15T18:43:41.043Z,0.73
2023-01-15T18:47:09.515Z,0.57
2023-01-15T18:50:34.559Z,1.20
2023-01-15T18:53:59.440Z,1.13
2023-01-15T18:57:24.356Z,1.55
2023-01-15T19:00:49.743Z,0.73
2023-01-15T19:04:14.674Z,0.55
2023-01-15T19:07:40.585Z,1.40
2023-01-15T19:11:12.561Z,1.08
2023-01-15T19:14:55.959Z,1.30
2023-01-15T19:18:40.806Z,0.90
2023-01-15T19:25:49.566Z,0.80
2023-01-15T19:29:15.911Z,1.77
2023-01-15T19:32:40.977Z,1.23
2023-01-15T19:36:06.293Z,0.93
2023-01-15T19:39:31.202Z,1.02
2023-01-15T19:43:15.666Z,1.02
2023-01-15T19:47:00.957Z,1.30
2023-01-15T19:50:32.096Z,0.80
2023-01-15T19:53:56.945Z,0.82
2023-01-15T19:57:21.837Z,0.52
2023-01-15T20:00:48.571Z,1.00
2023-01-15T20:04:13.759Z,1.33
2023-01-15T20:07:38.641Z,1.05
2023-01-15T20:11:07.237Z,1.50
2023-01-15T20:14:32.109Z,2.60
2023-01-15T20:17:57.108Z,1.70
2023-01-15T20:21:22.557Z,1.75
2023-01-15T20:24:47.447Z,1.20
2023-01-15T20:28:12.995Z,2.67
2023-01-15T20:31:39.224Z,1.80
2023-01-15T20:35:05.017Z,1.33
2023-01-15T20:38:30.275Z,1.20
2023-01-15T20:42:14.221Z,0.93
2023-01-15T20:45:39.395Z,0.75
2023-01-15T20:49:23.514Z,1.55
2023-01-15T20:52:49.595Z,1.98
2023-01-15T20:56:15.120Z,1.48
2023-01-15T20:59:41.606Z,1.30
2023-01-15T21:03:10.492Z,1.25
2023-01-15T21:06:35.430Z,1.48
2023-01-15T21:10:00.324Z,1.40
2023-01-15T21:13:25.149Z,1.25
2023-01-15T21:17:03.608Z,1.13
2023-01-15T21:20:28.575Z,0.82
2023-01-15T21:23:53.425Z,1.30
2023-01-15T21:27:18.306Z,1.40
2023-01-15T21:30:45.612Z,1.35
2023-01-15T21:34:10.555Z,1.70
2023-01-15T21:37:35.830Z,1.33
2023-01-15T21:41:06.647Z,1.60
2023-01-15T21:44:32.102Z,1.63
2023-01-15T21:47:57.585Z,1.50
2023-01-15T21:51:23.142Z,1.20
2023-01-15T21:54:48.153Z,1.17
2023-01-15T21:58:13.222Z,1.25
2023-01-15T22:01:38.345Z,0.52
2023-01-15T22:05:04.165Z,0.63
2023-01-15T22:11:59.264Z,0.65
2023-01-15T22:15:25.622Z,0.43
2023-01-15T22:18:50.598Z,0.70
2023-01-15T22:22:15.489Z,1.20
2023-01-15T22:25:43.019Z,1.33
2023-01-15T22:29:08.983Z,0.60
2023-01-15T22:32:33.872Z,1.17
2023-01-15T22:36:01.290Z,1.20
2023-01-15T22:39:26.386Z,0.52
2023-01-15T22:42:51.556Z,0.90
2023-01-15T22:46:16.480Z,1.00
2023-01-15T22:49:41.403Z,1.00
2023-01-15T22:53:06.333Z,1.20
2023-01-15T22:56:31.182Z,1.05
2023-01-15T22:59:56.663Z,1.00
2023-01-15T23:03:21.845Z,0.82
2023-01-15T23:06:46.896Z,0.55
2023-01-15T23:10:12.358Z,0.95
2023-01-15T23:13:38.090Z,0.22
2023-01-15T23:17:03.336Z,0.35
2023-01-15T23:20:28.214Z,0.40
2023-01-15T23:23:53.815Z,0.25
2023-01-15T23:27:18.832Z,0.55
2023-01-15T23:30:43.761Z,0.95
2023-01-15T23:34:09.955Z,0.10
2023-01-15T23:37:34.835Z,0.45
2023-01-15T23:40:59.701Z,0.30
2023-01-15T23:44:43.027Z,0.28
2023-01-15T23:48:07.905Z,0.57
2023-01-15T23:51:32.897Z,0.43
2023-01-15T23:54:57.846Z,0.52
2023-01-15T23:58:22.770Z,0.22
